createdAt,value
2023-01-08T00:01:11.339Z,78.80
2023-01-08T00:03:39.224Z,79.10
2023-01-08T00:06:09.025Z,79.30
2023-01-08T00:08:35.656Z,79.40
2023-01-08T00:11:02.376Z,79.60
2023-01-08T00:13:29.464Z,79.60
2023-01-08T00:15:56.031Z,79.80
2023-01-08T00:18:22.783Z,80.00
2023-01-08T00:20:49.504Z,80.00
2023-01-08T00:23:20.273Z,80.20
2023-01-08T00:25:47.252Z,80.20
2023-01-08T00:28:15.092Z,80.30
2023-01-08T00:30:42.485Z,80.40
2023-01-08T00:33:09.914Z,80.40
2023-01-08T00:35:38.929Z,80.50
2023-01-08T00:38:05.974Z,80.60
2023-01-08T00:40:34.583Z,80.60
2023-01-08T00:43:01.615Z,80.70
2023-01-08T00:45:28.258Z,80.80
2023-01-08T00:47:54.904Z,80.80
2023-01-08T00:50:21.531Z,80.90
2023-01-08T00:52:48.256Z,81.00
2023-01-08T00:55:14.912Z,81.10
2023-01-08T00:57:41.557Z,81.10
2023-01-08T01:00:11.427Z,81.10
2023-01-08T01:02:38.761Z,81.20
2023-01-08T01:05:06.555Z,81.20
2023-01-08T01:07:34.169Z,81.30
2023-01-08T01:10:01.066Z,81.30
2023-01-08T01:12:28.177Z,81.50
2023-01-08T01:14:54.804Z,81.50
2023-01-08T01:17:21.391Z,81.70
2023-01-08T01:19:47.994Z,81.70
2023-01-08T01:22:14.616Z,81.80
2023-01-08T01:24:41.251Z,82.30
2023-01-08T01:27:07.863Z,82.40
2023-01-08T01:29:34.477Z,82.30
2023-01-08T01:32:01.083Z,82.30
2023-01-08T01:34:27.661Z,82.30
2023-01-08T01:36:54.271Z,82.30
2023-01-08T01:39:21.665Z,82.20
2023-01-08T01:41:48.360Z,82.20
2023-01-08T01:44:33.543Z,82.10
2023-01-08T01:47:02.873Z,82.00
2023-01-08T01:49:30.196Z,81.90
2023-01-08T01:52:02.313Z,81.90
2023-01-08T01:54:31.278Z,81.80
2023-01-08T01:56:59.505Z,81.80
2023-01-08T01:59:26.278Z,81.80
2023-01-08T02:01:53.894Z,81.60
2023-01-08T02:04:20.705Z,81.60
2023-01-08T02:07:04.676Z,81.60
2023-01-08T02:09:55.323Z,81.60
2023-01-08T02:12:36.168Z,81.60
2023-01-08T02:15:11.835Z,81.50
2023-01-08T02:17:50.275Z,81.50
2023-01-08T02:20:37.666Z,81.50
2023-01-08T02:23:33.925Z,81.50
2023-01-08T02:26:27.747Z,81.50
2023-01-08T02:29:17.734Z,81.60
2023-01-08T02:31:45.124Z,81.50
2023-01-08T02:34:12.600Z,81.50
2023-01-08T02:36:47.927Z,81.50
2023-01-08T02:39:33.421Z,81.60
2023-01-08T02:42:23.653Z,81.70
2023-01-08T02:45:08.645Z,81.50
2023-01-08T02:47:43.536Z,81.60
2023-01-08T02:50:18.928Z,81.60
2023-01-08T02:53:19.795Z,81.60
2023-01-08T02:55:53.369Z,81.70
2023-01-08T02:58:21.585Z,81.80
2023-01-08T03:00:48.514Z,81.80
2023-01-08T03:03:23.642Z,81.70
2023-01-08T03:05:54.389Z,81.70
2023-01-08T03:08:22.848Z,81.70
2023-01-08T03:10:55.462Z,81.70
2023-01-08T03:13:27.107Z,81.70
2023-01-08T03:15:58.412Z,81.80
2023-01-08T03:18:31.202Z,81.70
2023-01-08T03:20:58.404Z,81.70
2023-01-08T03:23:26.692Z,81.70
2023-01-08T03:25:53.316Z,81.70
2023-01-08T03:28:25.324Z,81.70
2023-01-08T03:30:53.970Z,81.80
2023-01-08T03:33:23.994Z,81.80
2023-01-08T03:35:53.524Z,81.80
2023-01-08T03:38:27.959Z,81.80
2023-01-08T03:40:59.806Z,81.80
2023-01-08T03:43:26.655Z,81.90
2023-01-08T03:45:58.286Z,81.90
2023-01-08T03:48:27.285Z,82.00
2023-01-08T03:50:53.895Z,82.00
2023-01-08T03:53:20.980Z,82.10
2023-01-08T03:55:47.550Z,82.10
2023-01-08T03:58:14.159Z,82.20
2023-01-08T04:00:40.818Z,82.20
2023-01-08T04:03:07.560Z,82.30
2023-01-08T04:05:34.136Z,82.30
2023-01-08T04:08:00.718Z,82.30
2023-01-08T04:10:27.362Z,82.30
2023-01-08T04:12:53.999Z,82.40
2023-01-08T04:15:21.096Z,82.20
2023-01-08T04:17:47.687Z,82.10
2023-01-08T04:20:14.320Z,82.20
2023-01-08T04:22:40.959Z,82.10
2023-01-08T04:25:07.956Z,82.10
2023-01-08T04:27:34.544Z,82.10
2023-01-08T04:30:01.252Z,82.10
2023-01-08T04:32:27.936Z,82.00
2023-01-08T04:34:54.656Z,82.00
2023-01-08T04:37:21.235Z,81.90
2023-01-08T04:39:47.886Z,82.00
2023-01-08T04:42:14.494Z,82.00
2023-01-08T04:44:41.156Z,81.90
2023-01-08T04:47:07.823Z,81.80
2023-01-08T04:49:34.381Z,81.80
2023-01-08T04:52:00.941Z,81.70
2023-01-08T04:54:27.503Z,81.90
2023-01-08T04:56:54.184Z,81.60
2023-01-08T04:59:20.822Z,81.50
2023-01-08T05:01:47.555Z,81.40
2023-01-08T05:04:14.280Z,81.40
2023-01-08T05:06:41.004Z,81.30
2023-01-08T05:09:07.639Z,81.40
2023-01-08T05:11:35.533Z,81.30
2023-01-08T05:14:02.127Z,82.00
2023-01-08T05:16:28.734Z,81.20
2023-01-08T05:18:55.356Z,81.20
2023-01-08T05:21:21.956Z,81.20
2023-01-08T05:23:48.691Z,81.20
2023-01-08T05:26:16.386Z,81.20
2023-01-08T05:28:43.353Z,81.10
2023-01-08T05:31:11.622Z,81.20
2023-01-08T05:33:39.027Z,81.10
2023-01-08T05:36:08.023Z,81.00
2023-01-08T05:38:34.712Z,81.80
2023-01-08T05:41:01.410Z,81.10
2023-01-08T05:43:29.294Z,81.10
2023-01-08T05:45:58.739Z,81.10
2023-01-08T05:48:26.375Z,81.20
2023-01-08T05:50:53.029Z,81.10
2023-01-08T05:53:19.701Z,81.10
2023-01-08T05:55:46.524Z,81.30
2023-01-08T05:58:13.376Z,81.40
2023-01-08T06:00:40.220Z,81.40
2023-01-08T06:03:06.900Z,81.40
2023-01-08T06:05:33.779Z,81.40
2023-01-08T06:08:00.918Z,81.40
2023-01-08T06:10:27.610Z,81.40
2023-01-08T06:12:54.627Z,81.50
2023-01-08T06:15:21.612Z,81.40
2023-01-08T06:17:48.272Z,81.50
2023-01-08T06:20:14.961Z,81.40
2023-01-08T06:22:41.695Z,81.50
2023-01-08T06:25:08.666Z,81.50
2023-01-08T06:27:35.268Z,81.60
2023-01-08T06:30:01.893Z,81.60
2023-01-08T06:32:28.513Z,81.70
2023-01-08T06:34:55.066Z,81.70
2023-01-08T06:37:21.667Z,81.80
2023-01-08T06:39:48.245Z,81.80
2023-01-08T06:42:14.876Z,81.80
2023-01-08T06:44:41.516Z,81.80
2023-01-08T06:47:08.182Z,81.80
2023-01-08T06:49:34.762Z,81.70
2023-01-08T06:52:01.465Z,81.80
2023-01-08T06:54:28.089Z,81.70
2023-01-08T06:56:54.702Z,81.70
2023-01-08T06:59:21.907Z,81.70
2023-01-08T07:01:48.946Z,81.70
2023-01-08T07:04:16.125Z,81.70
2023-01-08T07:06:42.756Z,81.80
2023-01-08T07:09:13.315Z,81.80
2023-01-08T07:11:40.763Z,81.80
2023-01-08T07:14:07.806Z,81.80
2023-01-08T07:16:34.429Z,81.80
2023-01-08T07:19:00.987Z,81.70
2023-01-08T07:21:27.653Z,81.60
2023-01-08T07:23:54.411Z,81.60
2023-01-08T07:26:21.041Z,81.70
2023-01-08T07:28:47.620Z,81.70
2023-01-08T07:31:14.306Z,81.60
2023-01-08T07:33:40.950Z,81.60
2023-01-08T07:36:08.049Z,81.50
2023-01-08T07:38:34.680Z,81.50
2023-01-08T07:41:01.301Z,81.50
2023-01-08T07:43:29.923Z,81.60
2023-01-08T07:45:57.306Z,81.60
2023-01-08T07:48:24.121Z,81.60
2023-01-08T07:50:50.803Z,81.60
2023-01-08T07:53:17.832Z,81.60
2023-01-08T07:55:44.634Z,81.60
2023-01-08T07:58:14.591Z,81.60
2023-01-08T08:00:41.759Z,81.50
2023-01-08T08:03:11.376Z,81.50
2023-01-08T08:05:38.431Z,81.50
2023-01-08T08:08:09.989Z,81.50
2023-01-08T08:10:37.468Z,81.40
2023-01-08T08:13:04.447Z,81.30
2023-01-08T08:15:31.416Z,81.40
2023-01-08T08:17:58.099Z,81.30
2023-01-08T08:20:25.396Z,81.20
2023-01-08T08:22:52.582Z,81.10
2023-01-08T08:25:19.265Z,81.00
2023-01-08T08:27:45.983Z,81.00
2023-01-08T08:30:13.530Z,81.00
2023-01-08T08:32:40.188Z,81.00
2023-01-08T08:35:07.139Z,80.90
2023-01-08T08:37:33.899Z,80.80
2023-01-08T08:40:00.486Z,80.70
2023-01-08T08:42:27.048Z,80.50
2023-01-08T08:44:53.616Z,80.60
2023-01-08T08:47:20.206Z,80.50
2023-01-08T08:49:46.819Z,80.40
2023-01-08T08:52:13.505Z,80.40
2023-01-08T08:54:41.532Z,80.40
2023-01-08T08:57:09.399Z,80.40
2023-01-08T08:59:36.722Z,80.30
2023-01-08T09:02:03.947Z,80.30
2023-01-08T09:04:34.499Z,80.40
2023-01-08T09:07:01.887Z,80.30
2023-01-08T09:09:28.811Z,80.30
2023-01-08T09:11:56.071Z,80.30
2023-01-08T09:14:22.740Z,80.40
2023-01-08T09:16:49.332Z,80.40
2023-01-08T09:19:15.964Z,80.40
2023-01-08T09:21:43.182Z,80.30
2023-01-08T09:24:10.631Z,80.30
2023-01-08T09:26:37.216Z,80.30
2023-01-08T09:29:03.932Z,80.30
2023-01-08T09:31:30.633Z,80.20
2023-01-08T09:33:57.228Z,80.20
2023-01-08T09:36:23.832Z,80.20
2023-01-08T09:38:50.403Z,80.00
2023-01-08T09:41:22.694Z,80.00
2023-01-08T09:43:52.761Z,79.70
2023-01-08T09:46:22.430Z,79.90
2023-01-08T09:48:51.314Z,80.70
2023-01-08T09:51:20.404Z,80.80
2023-01-08T09:53:55.565Z,80.10
2023-01-08T09:56:22.154Z,79.70
2023-01-08T09:58:54.096Z,79.00
2023-01-08T10:01:36.855Z,78.90
2023-01-08T10:04:17.579Z,78.00
2023-01-08T10:07:11.410Z,76.20
2023-01-08T10:09:38.133Z,76.90
2023-01-08T10:12:06.313Z,75.20
2023-01-08T10:14:37.488Z,73.70
2023-01-08T10:17:15.949Z,73.40
2023-01-08T10:19:42.940Z,71.30
2023-01-08T10:22:18.423Z,72.00
2023-01-08T10:24:45.136Z,73.00
2023-01-08T10:27:17.899Z,72.90
2023-01-08T10:29:45.380Z,72.90
2023-01-08T10:32:16.688Z,73.30
2023-01-08T10:34:51.566Z,72.60
2023-01-08T10:37:23.214Z,71.70
2023-01-08T10:39:51.683Z,72.40
2023-01-08T10:42:19.933Z,72.80
2023-01-08T10:45:11.661Z,73.30
2023-01-08T10:47:39.260Z,73.60
2023-01-08T10:50:15.772Z,73.70
2023-01-08T10:52:53.584Z,73.30
2023-01-08T10:55:27.708Z,73.30
2023-01-08T10:58:03.505Z,73.20
2023-01-08T11:00:33.249Z,73.10
2023-01-08T11:03:02.846Z,72.90
2023-01-08T11:05:32.196Z,73.10
2023-01-08T11:08:00.622Z,73.10
2023-01-08T11:10:29.053Z,73.50
2023-01-08T11:13:01.212Z,73.80
2023-01-08T11:15:39.303Z,74.00
2023-01-08T11:18:18.161Z,73.50
2023-01-08T11:20:45.945Z,73.30
2023-01-08T11:23:24.993Z,73.00
2023-01-08T11:26:07.156Z,72.60
2023-01-08T11:28:56.283Z,72.60
2023-01-08T11:31:34.261Z,72.90
2023-01-08T11:34:16.369Z,73.00
2023-01-08T11:36:54.549Z,73.10
2023-01-08T11:39:21.217Z,74.30
2023-01-08T11:42:24.736Z,73.80
2023-01-08T11:45:06.449Z,72.60
2023-01-08T11:47:35.759Z,71.90
2023-01-08T11:50:19.628Z,73.00
2023-01-08T11:53:27.689Z,72.80
2023-01-08T11:56:03.176Z,72.20
2023-01-08T11:58:49.174Z,72.40
2023-01-08T12:01:25.794Z,71.30
2023-01-08T12:04:17.682Z,71.40
2023-01-08T12:06:59.588Z,71.30
2023-01-08T12:09:49.600Z,71.10
2023-01-08T12:12:37.308Z,72.10
2023-01-08T12:15:03.838Z,71.60
2023-01-08T12:18:13.681Z,71.90
2023-01-08T12:20:58.025Z,72.30
2023-01-08T12:23:24.548Z,72.20
2023-01-08T12:26:15.203Z,71.70
2023-01-08T12:29:19.420Z,71.30
2023-01-08T12:32:03.846Z,70.90
2023-01-08T12:34:54.148Z,70.80
2023-01-08T12:37:31.085Z,71.00
2023-01-08T12:40:07.481Z,71.50
2023-01-08T12:42:39.054Z,71.90
2023-01-08T12:45:13.737Z,72.30
2023-01-08T12:47:41.787Z,72.50
2023-01-08T12:50:34.001Z,72.70
2023-01-08T12:53:08.981Z,72.40
2023-01-08T12:55:38.653Z,72.40
2023-01-08T12:58:32.980Z,71.60
2023-01-08T13:01:16.905Z,71.30
2023-01-08T13:03:44.464Z,71.70
2023-01-08T13:06:15.534Z,71.80
2023-01-08T13:08:48.578Z,71.80
2023-01-08T13:11:38.269Z,72.00
2023-01-08T13:14:09.002Z,72.20
2023-01-08T13:16:40.408Z,72.20
2023-01-08T13:19:23.565Z,71.80
2023-01-08T13:21:56.715Z,71.70
2023-01-08T13:24:35.402Z,71.90
2023-01-08T13:27:17.087Z,72.00
2023-01-08T13:29:50.749Z,71.60
2023-01-08T13:32:47.605Z,71.00
2023-01-08T13:35:19.946Z,71.00
2023-01-08T13:37:49.337Z,70.90
2023-01-08T13:40:43.831Z,71.00
2023-01-08T13:43:40.000Z,71.10
2023-01-08T13:46:14.843Z,71.90
2023-01-08T13:49:04.187Z,71.10
2023-01-08T13:51:43.107Z,71.10
2023-01-08T13:54:14.664Z,71.00
2023-01-08T13:56:43.627Z,71.10
2023-01-08T13:59:36.334Z,70.90
2023-01-08T14:02:03.375Z,70.50
2023-01-08T14:04:30.347Z,70.50
2023-01-08T14:07:15.874Z,70.40
2023-01-08T14:09:42.673Z,70.20
2023-01-08T14:12:20.254Z,70.20
2023-01-08T14:14:51.424Z,70.20
2023-01-08T14:17:19.940Z,70.00
2023-01-08T14:19:46.803Z,70.20
2023-01-08T14:22:29.480Z,70.40
2023-01-08T15:43:13.462Z,70.90
2023-01-08T15:46:36.406Z,71.00
2023-01-08T16:31:50.825Z,72.40
2023-01-08T16:38:08.367Z,72.60
2023-01-08T16:41:32.381Z,72.70
2023-01-08T16:44:39.332Z,72.90
2023-01-08T17:06:28.750Z,73.60
2023-01-08T17:09:21.554Z,73.60
2023-01-08T17:22:22.700Z,73.70
2023-01-08T17:33:37.021Z,74.00
2023-01-08T17:36:55.741Z,73.90
2023-01-08T17:46:40.770Z,73.80
2023-01-08T17:54:55.417Z,73.80
2023-01-08T18:20:25.069Z,74.40
2023-01-08T19:53:53.981Z,76.00
2023-01-08T20:02:53.275Z,75.90
2023-01-08T20:05:23.784Z,75.90
2023-01-08T20:08:20.860Z,76.00
2023-01-08T20:14:25.910Z,75.80
2023-01-08T20:23:11.285Z,75.80
2023-01-08T20:25:37.862Z,75.90
2023-01-08T20:28:04.581Z,75.90
2023-01-08T20:30:31.173Z,76.00
2023-01-08T20:32:57.732Z,76.10
2023-01-08T20:35:24.299Z,76.20
2023-01-08T20:37:50.861Z,76.10
2023-01-08T20:40:17.538Z,76.10
2023-01-08T20:42:46.163Z,76.20
2023-01-08T20:45:12.837Z,76.20
2023-01-08T20:47:39.554Z,76.20
2023-01-08T20:50:12.584Z,76.20
2023-01-08T20:52:45.843Z,76.20
2023-01-08T20:55:12.492Z,76.20
2023-01-08T20:57:39.052Z,76.30
2023-01-08T21:00:06.403Z,76.20
2023-01-08T21:02:33.129Z,76.20
2023-01-08T21:04:59.697Z,76.20
2023-01-08T21:07:29.749Z,76.20
2023-01-08T21:09:56.329Z,76.30
2023-01-08T21:12:22.944Z,76.30
2023-01-08T21:14:49.612Z,76.40
2023-01-08T21:17:16.231Z,76.40
2023-01-08T21:19:43.043Z,76.40
2023-01-08T21:22:09.694Z,76.50
2023-01-08T21:24:36.662Z,76.50
2023-01-08T21:27:03.797Z,76.60
2023-01-08T21:29:30.604Z,76.60
2023-01-08T21:31:57.425Z,76.60
2023-01-08T21:34:24.104Z,76.70
2023-01-08T21:36:50.725Z,76.70
2023-01-08T21:39:17.499Z,76.60
2023-01-08T21:42:02.913Z,76.70
2023-01-08T21:44:48.479Z,77.00
2023-01-08T21:47:17.753Z,77.00
2023-01-08T21:49:45.860Z,77.10
2023-01-08T21:52:31.244Z,77.10
2023-01-08T21:54:58.188Z,77.10
2023-01-08T21:57:27.588Z,77.20
2023-01-08T21:59:54.925Z,77.20
2023-01-08T22:02:24.028Z,77.40
2023-01-08T22:04:54.464Z,77.40
2023-01-08T22:07:21.161Z,77.50
2023-01-08T22:09:47.757Z,77.60
2023-01-08T22:12:15.835Z,77.70
2023-01-08T22:14:42.762Z,77.70
2023-01-08T22:17:09.715Z,77.80
2023-01-08T22:19:39.433Z,77.90
2023-01-08T22:22:08.793Z,77.90
2023-01-08T22:24:36.892Z,77.90
2023-01-08T22:27:03.634Z,78.00
2023-01-08T22:29:30.334Z,78.30
2023-01-08T22:31:57.066Z,78.30
2023-01-08T22:34:23.673Z,78.40
2023-01-08T22:36:51.661Z,78.40
2023-01-08T22:39:18.620Z,78.90
2023-01-08T22:41:45.212Z,79.00
2023-01-08T22:44:12.403Z,79.20
2023-01-08T22:46:39.174Z,79.60
2023-01-08T22:49:05.778Z,79.60
2023-01-08T22:51:32.440Z,79.70
2023-01-08T22:53:59.439Z,80.00
2023-01-08T22:56:26.679Z,80.10
2023-01-08T22:58:54.034Z,80.10
2023-01-08T23:01:23.409Z,80.10
2023-01-08T23:03:51.800Z,80.50
2023-01-08T23:06:20.284Z,80.60
2023-01-08T23:08:47.507Z,80.70
2023-01-08T23:11:16.432Z,80.70
2023-01-08T23:13:43.587Z,80.80
2023-01-08T23:16:12.490Z,80.90
2023-01-08T23:18:40.094Z,81.00
2023-01-08T23:21:10.170Z,81.00
2023-01-08T23:23:37.242Z,81.10
2023-01-08T23:26:09.744Z,81.10
2023-01-08T23:28:36.912Z,81.00
2023-01-08T23:31:11.891Z,81.00
2023-01-08T23:33:38.767Z,81.10
2023-01-08T23:36:06.280Z,81.10
2023-01-08T23:38:32.964Z,81.10
2023-01-08T23:41:00.085Z,81.00
2023-01-08T23:43:26.991Z,81.00
2023-01-08T23:45:55.587Z,81.00
2023-01-08T23:48:22.317Z,81.00
2023-01-08T23:50:48.911Z,81.00
2023-01-08T23:53:15.535Z,80.90
2023-01-08T23:55:42.150Z,80.90
2023-01-08T23:58:09.304Z,80.90
